sensor_id;sensor_type;location;lat;lon;timestamp;P1;durP1;ratioP1;P2;durP2;ratioP2
80625;SDS011;69982;51.758;5.784;2023-07-20T00:00:31;11.30;;;4.90;;
80625;SDS011;69982;51.758;5.784;2023-07-20T00:03:17;9.40;;;4.80;;
80625;SDS011;69982;51.758;5.784;2023-07-20T00:05:45;10.30;;;5.10;;
80625;SDS011;69982;51.758;5.784;2023-07-20T00:10:40;10.90;;;5.00;;
80625;SDS011;69982;51.758;5.784;2023-07-20T00:13:08;8.80;;;5.00;;
80625;SDS011;69982;51.758;5.784;2023-07-20T00:15:37;10.60;;;5.60;;
80625;SDS011;69982;51.758;5.784;2023-07-20T00:18:04;11.00;;;5.80;;
80625;SDS011;69982;51.758;5.784;2023-07-20T00:20:32;11.10;;;5.40;;
80625;SDS011;69982;51.758;5.784;2023-07-20T00:22:59;11.40;;;5.40;;
80625;SDS011;69982;51.758;5.784;2023-07-20T00:25:26;11.50;;;5.50;;
80625;SDS011;69982;51.758;5.784;2023-07-20T00:27:54;11.70;;;5.70;;
80625;SDS011;69982;51.758;5.784;2023-07-20T00:30:21;14.10;;;5.60;;
80625;SDS011;69982;51.758;5.784;2023-07-20T00:32:48;8.70;;;5.00;;
80625;SDS011;69982;51.758;5.784;2023-07-20T00:35:15;11.70;;;6.20;;
80625;SDS011;69982;51.758;5.784;2023-07-20T00:37:43;10.60;;;6.00;;
80625;SDS011;69982;51.758;5.784;2023-07-20T00:43:02;12.80;;;6.60;;
80625;SDS011;69982;51.758;5.784;2023-07-20T00:45:29;10.70;;;5.80;;
80625;SDS011;69982;51.758;5.784;2023-07-20T00:47:58;9.80;;;5.80;;
80625;SDS011;69982;51.758;5.784;2023-07-20T00:50:26;11.90;;;5.70;;
80625;SDS011;69982;51.758;5.784;2023-07-20T00:52:55;12.30;;;6.00;;
80625;SDS011;69982;51.758;5.784;2023-07-20T00:57:50;12.30;;;5.90;;
80625;SDS011;69982;51.758;5.784;2023-07-20T01:00:18;10.10;;;5.60;;
80625;SDS011;69982;51.758;5.784;2023-07-20T01:02:45;9.80;;;5.90;;
80625;SDS011;69982;51.758;5.784;2023-07-20T01:05:13;14.70;;;6.10;;
80625;SDS011;69982;51.758;5.784;2023-07-20T01:07:52;13.00;;;7.00;;
80625;SDS011;69982;51.758;5.784;2023-07-20T01:10:27;11.20;;;6.00;;
80625;SDS011;69982;51.758;5.784;2023-07-20T01:13:00;12.60;;;6.50;;
80625;SDS011;69982;51.758;5.784;2023-07-20T01:15:29;11.40;;;5.90;;
80625;SDS011;69982;51.758;5.784;2023-07-20T01:17:56;13.70;;;7.30;;
80625;SDS011;69982;51.758;5.784;2023-07-20T01:20:23;12.40;;;5.60;;
80625;SDS011;69982;51.758;5.784;2023-07-20T01:23:12;11.30;;;6.40;;
80625;SDS011;69982;51.758;5.784;2023-07-20T01:31:42;9.50;;;5.70;;
80625;SDS011;69982;51.758;5.784;2023-07-20T01:34:11;11.70;;;6.10;;
80625;SDS011;69982;51.758;5.784;2023-07-20T01:36:42;12.00;;;6.20;;
80625;SDS011;69982;51.758;5.784;2023-07-20T01:39:11;10.10;;;5.80;;
80625;SDS011;69982;51.758;5.784;2023-07-20T01:41:39;10.00;;;6.10;;
80625;SDS011;69982;51.758;5.784;2023-07-20T01:44:07;9.90;;;5.70;;
80625;SDS011;69982;51.758;5.784;2023-07-20T01:46:35;12.10;;;5.60;;
80625;SDS011;69982;51.758;5.784;2023-07-20T01:49:02;10.40;;;5.90;;
80625;SDS011;69982;51.758;5.784;2023-07-20T01:51:29;9.40;;;5.40;;
80625;SDS011;69982;51.758;5.784;2023-07-20T01:53:56;8.90;;;5.50;;
80625;SDS011;69982;51.758;5.784;2023-07-20T01:56:23;10.10;;;5.70;;
80625;SDS011;69982;51.758;5.784;2023-07-20T01:58:50;12.50;;;6.50;;
80625;SDS011;69982;51.758;5.784;2023-07-20T02:01:17;11.20;;;6.40;;
80625;SDS011;69982;51.758;5.784;2023-07-20T02:03:44;10.10;;;6.70;;
80625;SDS011;69982;51.758;5.784;2023-07-20T02:06:11;12.80;;;6.80;;
80625;SDS011;69982;51.758;5.784;2023-07-20T02:08:38;14.50;;;6.90;;
80625;SDS011;69982;51.758;5.784;2023-07-20T02:11:07;16.60;;;6.80;;
80625;SDS011;69982;51.758;5.784;2023-07-20T02:13:34;14.20;;;6.70;;
80625;SDS011;69982;51.758;5.784;2023-07-20T02:16:03;10.80;;;6.00;;
80625;SDS011;69982;51.758;5.784;2023-07-20T02:18:31;14.20;;;6.10;;
80625;SDS011;69982;51.758;5.784;2023-07-20T02:20:58;10.90;;;6.10;;
80625;SDS011;69982;51.758;5.784;2023-07-20T02:23:25;10.80;;;6.40;;
80625;SDS011;69982;51.758;5.784;2023-07-20T02:25:52;11.10;;;6.60;;
80625;SDS011;69982;51.758;5.784;2023-07-20T02:28:19;10.90;;;6.40;;
80625;SDS011;69982;51.758;5.784;2023-07-20T02:30:47;10.20;;;6.30;;
80625;SDS011;69982;51.758;5.784;2023-07-20T02:33:15;11.60;;;6.40;;
80625;SDS011;69982;51.758;5.784;2023-07-20T02:35:42;11.30;;;6.30;;
80625;SDS011;69982;51.758;5.784;2023-07-20T02:38:09;9.90;;;5.70;;
80625;SDS011;69982;51.758;5.784;2023-07-20T02:40:36;9.30;;;5.70;;
80625;SDS011;69982;51.758;5.784;2023-07-20T02:43:03;10.70;;;5.30;;
80625;SDS011;69982;51.758;5.784;2023-07-20T02:45:30;9.10;;;5.10;;
80625;SDS011;69982;51.758;5.784;2023-07-20T02:47:57;9.10;;;5.30;;
80625;SDS011;69982;51.758;5.784;2023-07-20T02:50:24;9.50;;;4.70;;
80625;SDS011;69982;51.758;5.784;2023-07-20T02:52:51;8.50;;;4.80;;
80625;SDS011;69982;51.758;5.784;2023-07-20T02:55:18;7.70;;;4.70;;
80625;SDS011;69982;51.758;5.784;2023-07-20T02:57:45;8.80;;;4.40;;
80625;SDS011;69982;51.758;5.784;2023-07-20T03:00:12;7.70;;;4.40;;
80625;SDS011;69982;51.758;5.784;2023-07-20T03:02:41;5.90;;;3.50;;
80625;SDS011;69982;51.758;5.784;2023-07-20T03:05:09;7.00;;;3.70;;
80625;SDS011;69982;51.758;5.784;2023-07-20T03:07:36;6.10;;;3.30;;
80625;SDS011;69982;51.758;5.784;2023-07-20T03:10:03;6.80;;;3.60;;
80625;SDS011;69982;51.758;5.784;2023-07-20T03:17:25;6.40;;;3.70;;
80625;SDS011;69982;51.758;5.784;2023-07-20T03:19:52;8.00;;;3.60;;
80625;SDS011;69982;51.758;5.784;2023-07-20T03:22:19;6.40;;;3.60;;
80625;SDS011;69982;51.758;5.784;2023-07-20T03:24:48;8.60;;;3.80;;
80625;SDS011;69982;51.758;5.784;2023-07-20T03:27:15;6.10;;;3.50;;
80625;SDS011;69982;51.758;5.784;2023-07-20T03:29:42;7.80;;;3.20;;
80625;SDS011;69982;51.758;5.784;2023-07-20T03:32:09;8.70;;;3.10;;
80625;SDS011;69982;51.758;5.784;2023-07-20T03:34:37;5.70;;;2.80;;
80625;SDS011;69982;51.758;5.784;2023-07-20T03:37:03;8.70;;;2.80;;
80625;SDS011;69982;51.758;5.784;2023-07-20T03:39:31;4.90;;;2.80;;
80625;SDS011;69982;51.758;5.784;2023-07-20T03:41:58;4.70;;;2.70;;
80625;SDS011;69982;51.758;5.784;2023-07-20T03:44:25;4.70;;;2.20;;
80625;SDS011;69982;51.758;5.784;2023-07-20T03:46:52;4.90;;;2.60;;
80625;SDS011;69982;51.758;5.784;2023-07-20T03:49:19;4.60;;;2.30;;
80625;SDS011;69982;51.758;5.784;2023-07-20T03:51:45;6.30;;;2.70;;
80625;SDS011;69982;51.758;5.784;2023-07-20T03:54:12;4.10;;;2.00;;
80625;SDS011;69982;51.758;5.784;2023-07-20T03:56:40;4.50;;;2.40;;
80625;SDS011;69982;51.758;5.784;2023-07-20T03:59:07;4.60;;;2.30;;
80625;SDS011;69982;51.758;5.784;2023-07-20T04:01:33;6.80;;;2.70;;
80625;SDS011;69982;51.758;5.784;2023-07-20T04:04:07;4.60;;;2.20;;
80625;SDS011;69982;51.758;5.784;2023-07-20T04:06:34;5.30;;;2.40;;
80625;SDS011;69982;51.758;5.784;2023-07-20T04:09:02;5.20;;;2.50;;
80625;SDS011;69982;51.758;5.784;2023-07-20T04:11:31;4.50;;;2.20;;
80625;SDS011;69982;51.758;5.784;2023-07-20T04:13:58;5.30;;;2.60;;
80625;SDS011;69982;51.758;5.784;2023-07-20T04:16:25;5.10;;;2.70;;
80625;SDS011;69982;51.758;5.784;2023-07-20T04:18:56;5.20;;;2.70;;
80625;SDS011;69982;51.758;5.784;2023-07-20T04:21:25;5.60;;;2.50;;
80625;SDS011;69982;51.758;5.784;2023-07-20T04:23:53;5.30;;;2.70;;
80625;SDS011;69982;51.758;5.784;2023-07-20T04:26:20;5.60;;;2.70;;
80625;SDS011;69982;51.758;5.784;2023-07-20T04:28:47;5.80;;;3.10;;
80625;SDS011;69982;51.758;5.784;2023-07-20T04:31:15;4.80;;;2.50;;
80625;SDS011;69982;51.758;5.784;2023-07-20T04:33:43;8.20;;;3.30;;
80625;SDS011;69982;51.758;5.784;2023-07-20T04:36:09;5.00;;;2.50;;
80625;SDS011;69982;51.758;5.784;2023-07-20T04:38:36;5.10;;;2.70;;
80625;SDS011;69982;51.758;5.784;2023-07-20T04:41:03;6.00;;;3.20;;
80625;SDS011;69982;51.758;5.784;2023-07-20T04:43:30;4.90;;;2.90;;
80625;SDS011;69982;51.758;5.784;2023-07-20T04:45:57;7.10;;;2.90;;
80625;SDS011;69982;51.758;5.784;2023-07-20T04:48:25;5.30;;;2.60;;
80625;SDS011;69982;51.758;5.784;2023-07-20T04:50:52;5.70;;;2.80;;
80625;SDS011;69982;51.758;5.784;2023-07-20T04:53:19;5.30;;;2.90;;
80625;SDS011;69982;51.758;5.784;2023-07-20T04:55:48;6.10;;;3.20;;
80625;SDS011;69982;51.758;5.784;2023-07-20T04:58:20;7.10;;;3.50;;
80625;SDS011;69982;51.758;5.784;2023-07-20T05:00:49;7.00;;;3.60;;
80625;SDS011;69982;51.758;5.784;2023-07-20T05:03:17;8.30;;;4.30;;
80625;SDS011;69982;51.758;5.784;2023-07-20T05:05:46;6.30;;;3.80;;
80625;SDS011;69982;51.758;5.784;2023-07-20T05:08:15;6.70;;;3.10;;
80625;SDS011;69982;51.758;5.784;2023-07-20T05:10:43;6.00;;;3.20;;
80625;SDS011;69982;51.758;5.784;2023-07-20T05:13:09;5.70;;;3.20;;
80625;SDS011;69982;51.758;5.784;2023-07-20T05:15:37;5.40;;;2.80;;
80625;SDS011;69982;51.758;5.784;2023-07-20T05:18:03;6.40;;;3.00;;
80625;SDS011;69982;51.758;5.784;2023-07-20T05:20:30;7.60;;;3.30;;
80625;SDS011;69982;51.758;5.784;2023-07-20T05:22:59;4.80;;;3.10;;
80625;SDS011;69982;51.758;5.784;2023-07-20T05:25:27;7.60;;;2.90;;
80625;SDS011;69982;51.758;5.784;2023-07-20T05:27:55;7.50;;;3.20;;
80625;SDS011;69982;51.758;5.784;2023-07-20T05:30:22;6.20;;;3.30;;
80625;SDS011;69982;51.758;5.784;2023-07-20T05:32:50;5.10;;;3.00;;
80625;SDS011;69982;51.758;5.784;2023-07-20T05:35:19;6.90;;;2.80;;
80625;SDS011;69982;51.758;5.784;2023-07-20T05:37:46;4.90;;;2.90;;
80625;SDS011;69982;51.758;5.784;2023-07-20T05:40:14;6.20;;;2.60;;
80625;SDS011;69982;51.758;5.784;2023-07-20T05:42:45;6.00;;;2.80;;
80625;SDS011;69982;51.758;5.784;2023-07-20T05:45:18;6.10;;;2.80;;
80625;SDS011;69982;51.758;5.784;2023-07-20T05:47:47;4.90;;;3.00;;
80625;SDS011;69982;51.758;5.784;2023-07-20T05:50:15;6.00;;;3.50;;
80625;SDS011;69982;51.758;5.784;2023-07-20T05:52:42;5.00;;;3.00;;
80625;SDS011;69982;51.758;5.784;2023-07-20T05:55:09;4.70;;;2.70;;
80625;SDS011;69982;51.758;5.784;2023-07-20T05:57:36;4.70;;;2.90;;
80625;SDS011;69982;51.758;5.784;2023-07-20T06:00:07;5.00;;;3.00;;
80625;SDS011;69982;51.758;5.784;2023-07-20T06:02:35;5.20;;;2.60;;
80625;SDS011;69982;51.758;5.784;2023-07-20T06:05:02;4.60;;;2.40;;
80625;SDS011;69982;51.758;5.784;2023-07-20T06:07:29;4.60;;;2.50;;
80625;SDS011;69982;51.758;5.784;2023-07-20T06:09:56;6.50;;;2.80;;
80625;SDS011;69982;51.758;5.784;2023-07-20T06:12:25;4.60;;;2.60;;
80625;SDS011;69982;51.758;5.784;2023-07-20T06:14:52;6.80;;;3.40;;
80625;SDS011;69982;51.758;5.784;2023-07-20T06:17:19;6.60;;;2.60;;
80625;SDS011;69982;51.758;5.784;2023-07-20T06:19:47;5.40;;;3.00;;
80625;SDS011;69982;51.758;5.784;2023-07-20T06:22:14;5.00;;;2.80;;
80625;SDS011;69982;51.758;5.784;2023-07-20T06:24:41;6.20;;;2.40;;
80625;SDS011;69982;51.758;5.784;2023-07-20T06:27:08;4.60;;;2.40;;
80625;SDS011;69982;51.758;5.784;2023-07-20T06:29:35;3.90;;;2.30;;
80625;SDS011;69982;51.758;5.784;2023-07-20T06:32:02;4.70;;;2.80;;
80625;SDS011;69982;51.758;5.784;2023-07-20T06:34:29;4.20;;;2.60;;
80625;SDS011;69982;51.758;5.784;2023-07-20T06:36:57;5.20;;;2.70;;
80625;SDS011;69982;51.758;5.784;2023-07-20T06:39:23;4.90;;;2.50;;
80625;SDS011;69982;51.758;5.784;2023-07-20T06:41:53;4.20;;;2.30;;
80625;SDS011;69982;51.758;5.784;2023-07-20T06:46:49;4.60;;;2.10;;
80625;SDS011;69982;51.758;5.784;2023-07-20T06:49:26;4.30;;;1.70;;
80625;SDS011;69982;51.758;5.784;2023-07-20T06:51:55;8.10;;;1.80;;
80625;SDS011;69982;51.758;5.784;2023-07-20T06:54:22;4.40;;;1.60;;
80625;SDS011;69982;51.758;5.784;2023-07-20T06:56:50;4.10;;;2.30;;
80625;SDS011;69982;51.758;5.784;2023-07-20T06:59:21;5.20;;;2.00;;
80625;SDS011;69982;51.758;5.784;2023-07-20T07:01:48;5.40;;;2.70;;
80625;SDS011;69982;51.758;5.784;2023-07-20T07:04:15;4.70;;;2.50;;
80625;SDS011;69982;51.758;5.784;2023-07-20T07:06:43;5.10;;;2.00;;
80625;SDS011;69982;51.758;5.784;2023-07-20T07:09:11;5.30;;;2.20;;
80625;SDS011;69982;51.758;5.784;2023-07-20T07:11:39;5.90;;;2.30;;
80625;SDS011;69982;51.758;5.784;2023-07-20T07:14:07;3.40;;;1.80;;
80625;SDS011;69982;51.758;5.784;2023-07-20T07:16:35;5.40;;;1.40;;
80625;SDS011;69982;51.758;5.784;2023-07-20T07:19:07;4.70;;;1.40;;
80625;SDS011;69982;51.758;5.784;2023-07-20T07:21:35;3.30;;;1.30;;
80625;SDS011;69982;51.758;5.784;2023-07-20T07:24:02;4.10;;;1.60;;
80625;SDS011;69982;51.758;5.784;2023-07-20T07:28:57;6.90;;;2.20;;
80625;SDS011;69982;51.758;5.784;2023-07-20T07:31:25;5.70;;;1.50;;
80625;SDS011;69982;51.758;5.784;2023-07-20T07:33:53;4.20;;;1.60;;
80625;SDS011;69982;51.758;5.784;2023-07-20T07:36:20;4.90;;;1.70;;
80625;SDS011;69982;51.758;5.784;2023-07-20T07:38:47;4.20;;;1.70;;
80625;SDS011;69982;51.758;5.784;2023-07-20T07:41:34;3.60;;;1.40;;
80625;SDS011;69982;51.758;5.784;2023-07-20T07:44:02;4.50;;;1.90;;
80625;SDS011;69982;51.758;5.784;2023-07-20T07:46:29;3.50;;;1.40;;
80625;SDS011;69982;51.758;5.784;2023-07-20T07:48:56;4.70;;;1.50;;
80625;SDS011;69982;51.758;5.784;2023-07-20T07:51:23;3.00;;;0.80;;
80625;SDS011;69982;51.758;5.784;2023-07-20T07:53:51;1.80;;;0.60;;
80625;SDS011;69982;51.758;5.784;2023-07-20T11:04:49;4.20;;;0.70;;
80625;SDS011;69982;51.758;5.784;2023-07-20T11:07:17;3.60;;;0.70;;
80625;SDS011;69982;51.758;5.784;2023-07-20T11:10:12;2.30;;;0.60;;
80625;SDS011;69982;51.758;5.784;2023-07-20T11:18:25;2.30;;;0.70;;
80625;SDS011;69982;51.758;5.784;2023-07-20T11:20:52;2.70;;;0.50;;
80625;SDS011;69982;51.758;5.784;2023-07-20T11:23:19;3.00;;;0.70;;
80625;SDS011;69982;51.758;5.784;2023-07-20T11:28:13;2.80;;;1.00;;
80625;SDS011;69982;51.758;5.784;2023-07-20T11:30:39;2.20;;;0.60;;
80625;SDS011;69982;51.758;5.784;2023-07-20T11:33:10;3.70;;;1.10;;
80625;SDS011;69982;51.758;5.784;2023-07-20T11:35:44;2.60;;;0.90;;
80625;SDS011;69982;51.758;5.784;2023-07-20T11:38:13;2.30;;;1.00;;
80625;SDS011;69982;51.758;5.784;2023-07-20T11:40:46;2.70;;;0.90;;
80625;SDS011;69982;51.758;5.784;2023-07-20T11:43:14;2.90;;;0.80;;
80625;SDS011;69982;51.758;5.784;2023-07-20T11:45:44;3.70;;;1.40;;
80625;SDS011;69982;51.758;5.784;2023-07-20T11:48:17;2.70;;;1.00;;
80625;SDS011;69982;51.758;5.784;2023-07-20T11:50:44;3.60;;;1.20;;
80625;SDS011;69982;51.758;5.784;2023-07-20T11:53:10;2.30;;;0.80;;
80625;SDS011;69982;51.758;5.784;2023-07-20T11:55:39;4.10;;;1.20;;
80625;SDS011;69982;51.758;5.784;2023-07-20T11:58:08;4.60;;;0.80;;
80625;SDS011;69982;51.758;5.784;2023-07-20T12:00:36;3.10;;;1.10;;
80625;SDS011;69982;51.758;5.784;2023-07-20T12:03:05;3.70;;;1.20;;
80625;SDS011;69982;51.758;5.784;2023-07-20T12:05:34;3.90;;;1.00;;
80625;SDS011;69982;51.758;5.784;2023-07-20T12:08:04;4.30;;;1.20;;
80625;SDS011;69982;51.758;5.784;2023-07-20T12:10:31;3.00;;;1.20;;
80625;SDS011;69982;51.758;5.784;2023-07-20T12:13:01;3.20;;;1.10;;
80625;SDS011;69982;51.758;5.784;2023-07-20T12:15:29;5.70;;;1.30;;
80625;SDS011;69982;51.758;5.784;2023-07-20T12:17:58;3.10;;;1.20;;
80625;SDS011;69982;51.758;5.784;2023-07-20T12:20:27;3.40;;;1.60;;
80625;SDS011;69982;51.758;5.784;2023-07-20T12:23:00;3.30;;;1.20;;
80625;SDS011;69982;51.758;5.784;2023-07-20T12:25:44;3.10;;;1.30;;
80625;SDS011;69982;51.758;5.784;2023-07-20T12:28:12;3.00;;;1.00;;
80625;SDS011;69982;51.758;5.784;2023-07-20T12:30:40;3.30;;;1.10;;
80625;SDS011;69982;51.758;5.784;2023-07-20T12:33:08;3.10;;;1.10;;
80625;SDS011;69982;51.758;5.784;2023-07-20T12:35:34;4.60;;;1.10;;
80625;SDS011;69982;51.758;5.784;2023-07-20T12:38:01;2.50;;;0.90;;
80625;SDS011;69982;51.758;5.784;2023-07-20T12:40:27;3.10;;;1.00;;
80625;SDS011;69982;51.758;5.784;2023-07-20T12:42:54;3.20;;;0.90;;
80625;SDS011;69982;51.758;5.784;2023-07-20T12:45:21;3.30;;;1.40;;
80625;SDS011;69982;51.758;5.784;2023-07-20T12:47:48;2.70;;;0.90;;
80625;SDS011;69982;51.758;5.784;2023-07-20T12:50:15;3.00;;;0.90;;
80625;SDS011;69982;51.758;5.784;2023-07-20T12:52:41;1.90;;;0.70;;
80625;SDS011;69982;51.758;5.784;2023-07-20T12:55:08;4.30;;;1.00;;
80625;SDS011;69982;51.758;5.784;2023-07-20T12:57:35;3.60;;;1.00;;
80625;SDS011;69982;51.758;5.784;2023-07-20T13:00:03;2.50;;;0.80;;
80625;SDS011;69982;51.758;5.784;2023-07-20T13:02:32;3.30;;;1.00;;
80625;SDS011;69982;51.758;5.784;2023-07-20T13:04:58;3.70;;;1.30;;
80625;SDS011;69982;51.758;5.784;2023-07-20T13:07:32;3.30;;;1.00;;
80625;SDS011;69982;51.758;5.784;2023-07-20T13:10:03;3.30;;;1.20;;
80625;SDS011;69982;51.758;5.784;2023-07-20T13:14:57;4.80;;;1.50;;
80625;SDS011;69982;51.758;5.784;2023-07-20T13:17:27;3.20;;;1.60;;
80625;SDS011;69982;51.758;5.784;2023-07-20T13:19:54;4.40;;;1.90;;
80625;SDS011;69982;51.758;5.784;2023-07-20T13:22:21;3.10;;;1.50;;
80625;SDS011;69982;51.758;5.784;2023-07-20T13:24:47;5.00;;;1.90;;
80625;SDS011;69982;51.758;5.784;2023-07-20T13:27:15;6.10;;;1.90;;
80625;SDS011;69982;51.758;5.784;2023-07-20T13:29:45;4.00;;;2.00;;
80625;SDS011;69982;51.758;5.784;2023-07-20T13:32:13;5.20;;;1.90;;
80625;SDS011;69982;51.758;5.784;2023-07-20T13:34:40;4.70;;;1.70;;
80625;SDS011;69982;51.758;5.784;2023-07-20T13:37:08;3.90;;;1.90;;
80625;SDS011;69982;51.758;5.784;2023-07-20T13:39:34;3.40;;;1.50;;
80625;SDS011;69982;51.758;5.784;2023-07-20T13:42:01;4.60;;;2.10;;
80625;SDS011;69982;51.758;5.784;2023-07-20T13:44:31;5.50;;;2.00;;
80625;SDS011;69982;51.758;5.784;2023-07-20T13:46:58;3.70;;;2.00;;
80625;SDS011;69982;51.758;5.784;2023-07-20T13:49:44;4.00;;;2.30;;
80625;SDS011;69982;51.758;5.784;2023-07-20T13:52:13;5.50;;;2.60;;
80625;SDS011;69982;51.758;5.784;2023-07-20T13:54:43;3.90;;;2.20;;
80625;SDS011;69982;51.758;5.784;2023-07-20T13:57:12;4.40;;;2.30;;
80625;SDS011;69982;51.758;5.784;2023-07-20T13:59:41;5.70;;;2.30;;
80625;SDS011;69982;51.758;5.784;2023-07-20T14:02:07;4.60;;;2.30;;
80625;SDS011;69982;51.758;5.784;2023-07-20T14:04:37;5.30;;;2.30;;
80625;SDS011;69982;51.758;5.784;2023-07-20T14:07:03;4.10;;;2.60;;
80625;SDS011;69982;51.758;5.784;2023-07-20T14:09:30;3.90;;;1.90;;
80625;SDS011;69982;51.758;5.784;2023-07-20T14:11:56;4.10;;;2.20;;
80625;SDS011;69982;51.758;5.784;2023-07-20T14:14:25;6.00;;;2.60;;
80625;SDS011;69982;51.758;5.784;2023-07-20T14:16:52;5.30;;;2.70;;
80625;SDS011;69982;51.758;5.784;2023-07-20T14:19:18;6.30;;;2.70;;
80625;SDS011;69982;51.758;5.784;2023-07-20T14:21:44;6.40;;;3.00;;
80625;SDS011;69982;51.758;5.784;2023-07-20T14:24:10;3.90;;;2.10;;
80625;SDS011;69982;51.758;5.784;2023-07-20T14:26:37;4.60;;;2.20;;
80625;SDS011;69982;51.758;5.784;2023-07-20T14:29:03;5.20;;;2.00;;
80625;SDS011;69982;51.758;5.784;2023-07-20T14:31:30;4.70;;;2.60;;
80625;SDS011;69982;51.758;5.784;2023-07-20T14:33:56;5.50;;;2.50;;
80625;SDS011;69982;51.758;5.784;2023-07-20T14:36:23;4.30;;;2.70;;
80625;SDS011;69982;51.758;5.784;2023-07-20T14:38:51;5.10;;;2.50;;
80625;SDS011;69982;51.758;5.784;2023-07-20T14:41:18;3.80;;;2.00;;
80625;SDS011;69982;51.758;5.784;2023-07-20T14:43:44;5.50;;;2.30;;
80625;SDS011;69982;51.758;5.784;2023-07-20T14:46:10;6.20;;;2.70;;
80625;SDS011;69982;51.758;5.784;2023-07-20T14:48:37;3.90;;;1.70;;
80625;SDS011;69982;51.758;5.784;2023-07-20T14:51:03;5.20;;;1.90;;
80625;SDS011;69982;51.758;5.784;2023-07-20T14:53:31;4.00;;;1.30;;
80625;SDS011;69982;51.758;5.784;2023-07-20T14:56:00;3.00;;;1.30;;
80625;SDS011;69982;51.758;5.784;2023-07-20T15:00:54;3.00;;;1.20;;
80625;SDS011;69982;51.758;5.784;2023-07-20T15:03:20;2.40;;;0.80;;
80625;SDS011;69982;51.758;5.784;2023-07-20T15:05:47;2.80;;;1.00;;
80625;SDS011;69982;51.758;5.784;2023-07-20T15:08:13;2.90;;;1.00;;
80625;SDS011;69982;51.758;5.784;2023-07-20T15:10:40;3.30;;;1.10;;
80625;SDS011;69982;51.758;5.784;2023-07-20T15:13:06;4.70;;;1.20;;
80625;SDS011;69982;51.758;5.784;2023-07-20T15:15:32;4.50;;;1.80;;
80625;SDS011;69982;51.758;5.784;2023-07-20T15:17:59;3.50;;;1.20;;
80625;SDS011;69982;51.758;5.784;2023-07-20T15:20:26;2.40;;;0.80;;
80625;SDS011;69982;51.758;5.784;2023-07-20T15:22:52;2.30;;;0.70;;
80625;SDS011;69982;51.758;5.784;2023-07-20T15:25:18;4.60;;;1.10;;
80625;SDS011;69982;51.758;5.784;2023-07-20T15:27:45;5.10;;;0.80;;
80625;SDS011;69982;51.758;5.784;2023-07-20T15:30:11;2.50;;;0.90;;
80625;SDS011;69982;51.758;5.784;2023-07-20T15:32:58;3.40;;;1.00;;
80625;SDS011;69982;51.758;5.784;2023-07-20T15:35:27;3.90;;;0.90;;
80625;SDS011;69982;51.758;5.784;2023-07-20T15:37:54;5.60;;;1.70;;
80625;SDS011;69982;51.758;5.784;2023-07-20T15:40:20;5.50;;;2.00;;
80625;SDS011;69982;51.758;5.784;2023-07-20T15:42:47;3.10;;;1.40;;
80625;SDS011;69982;51.758;5.784;2023-07-20T15:45:19;4.40;;;1.70;;
80625;SDS011;69982;51.758;5.784;2023-07-20T15:47:47;3.90;;;1.50;;
80625;SDS011;69982;51.758;5.784;2023-07-20T15:50:13;4.20;;;2.00;;
80625;SDS011;69982;51.758;5.784;2023-07-20T15:52:40;4.10;;;1.50;;
80625;SDS011;69982;51.758;5.784;2023-07-20T15:55:08;3.20;;;1.60;;
80625;SDS011;69982;51.758;5.784;2023-07-20T15:57:34;4.20;;;1.70;;
80625;SDS011;69982;51.758;5.784;2023-07-20T16:00:01;3.10;;;1.60;;
80625;SDS011;69982;51.758;5.784;2023-07-20T16:02:30;3.40;;;1.40;;
80625;SDS011;69982;51.758;5.784;2023-07-20T16:04:57;5.10;;;1.50;;
80625;SDS011;69982;51.758;5.784;2023-07-20T16:07:24;4.10;;;1.60;;
80625;SDS011;69982;51.758;5.784;2023-07-20T16:09:50;3.90;;;1.90;;
80625;SDS011;69982;51.758;5.784;2023-07-20T16:12:18;4.90;;;1.80;;
80625;SDS011;69982;51.758;5.784;2023-07-20T16:14:51;4.00;;;1.60;;
80625;SDS011;69982;51.758;5.784;2023-07-20T16:17:21;4.80;;;1.30;;
80625;SDS011;69982;51.758;5.784;2023-07-20T16:19:47;3.30;;;1.30;;
80625;SDS011;69982;51.758;5.784;2023-07-20T16:22:14;2.50;;;1.10;;
80625;SDS011;69982;51.758;5.784;2023-07-20T16:24:40;3.70;;;1.30;;
80625;SDS011;69982;51.758;5.784;2023-07-20T16:27:07;3.30;;;1.10;;
80625;SDS011;69982;51.758;5.784;2023-07-20T16:29:33;2.50;;;1.10;;
80625;SDS011;69982;51.758;5.784;2023-07-20T16:32:00;2.50;;;1.00;;
80625;SDS011;69982;51.758;5.784;2023-07-20T16:34:29;3.80;;;1.20;;
80625;SDS011;69982;51.758;5.784;2023-07-20T16:36:55;2.80;;;1.20;;
80625;SDS011;69982;51.758;5.784;2023-07-20T16:39:22;2.50;;;1.10;;
80625;SDS011;69982;51.758;5.784;2023-07-20T16:41:52;3.50;;;1.20;;
80625;SDS011;69982;51.758;5.784;2023-07-20T16:44:21;2.30;;;1.00;;
80625;SDS011;69982;51.758;5.784;2023-07-20T16:46:47;4.00;;;1.00;;
80625;SDS011;69982;51.758;5.784;2023-07-20T16:49:16;3.20;;;1.40;;
80625;SDS011;69982;51.758;5.784;2023-07-20T16:51:43;7.30;;;1.30;;
80625;SDS011;69982;51.758;5.784;2023-07-20T16:54:09;4.10;;;1.40;;
80625;SDS011;69982;51.758;5.784;2023-07-20T16:56:36;4.10;;;1.20;;
80625;SDS011;69982;51.758;5.784;2023-07-20T16:59:02;4.70;;;1.50;;
80625;SDS011;69982;51.758;5.784;2023-07-20T17:01:29;3.60;;;1.70;;
80625;SDS011;69982;51.758;5.784;2023-07-20T17:03:55;4.00;;;1.40;;
80625;SDS011;69982;51.758;5.784;2023-07-20T17:06:21;3.40;;;1.40;;
80625;SDS011;69982;51.758;5.784;2023-07-20T17:08:48;3.10;;;1.30;;
80625;SDS011;69982;51.758;5.784;2023-07-20T17:11:14;3.30;;;1.50;;
80625;SDS011;69982;51.758;5.784;2023-07-20T17:13:40;4.10;;;1.60;;
80625;SDS011;69982;51.758;5.784;2023-07-20T17:16:06;3.60;;;1.70;;
80625;SDS011;69982;51.758;5.784;2023-07-20T17:18:33;5.40;;;2.10;;
80625;SDS011;69982;51.758;5.784;2023-07-20T17:20:59;5.40;;;2.30;;
80625;SDS011;69982;51.758;5.784;2023-07-20T17:23:25;7.70;;;2.20;;
80625;SDS011;69982;51.758;5.784;2023-07-20T17:25:58;4.60;;;2.60;;
80625;SDS011;69982;51.758;5.784;2023-07-20T17:28:28;6.30;;;3.10;;
80625;SDS011;69982;51.758;5.784;2023-07-20T17:31:00;7.10;;;3.20;;
80625;SDS011;69982;51.758;5.784;2023-07-20T17:33:27;4.70;;;2.80;;
80625;SDS011;69982;51.758;5.784;2023-07-20T17:35:54;6.70;;;3.20;;
80625;SDS011;69982;51.758;5.784;2023-07-20T17:38:40;5.70;;;2.90;;
80625;SDS011;69982;51.758;5.784;2023-07-20T17:41:07;5.60;;;3.20;;
80625;SDS011;69982;51.758;5.784;2023-07-20T17:43:33;7.30;;;3.00;;
80625;SDS011;69982;51.758;5.784;2023-07-20T17:46:00;4.70;;;2.80;;
80625;SDS011;69982;51.758;5.784;2023-07-20T17:48:29;8.10;;;3.30;;
80625;SDS011;69982;51.758;5.784;2023-07-20T17:50:55;6.40;;;2.80;;
80625;SDS011;69982;51.758;5.784;2023-07-20T17:53:21;5.00;;;3.60;;
80625;SDS011;69982;51.758;5.784;2023-07-20T17:55:48;6.80;;;2.90;;
80625;SDS011;69982;51.758;5.784;2023-07-20T17:58:14;5.80;;;3.10;;
80625;SDS011;69982;51.758;5.784;2023-07-20T18:00:40;4.70;;;2.90;;
80625;SDS011;69982;51.758;5.784;2023-07-20T18:03:06;4.30;;;3.00;;
80625;SDS011;69982;51.758;5.784;2023-07-20T18:05:33;5.60;;;3.20;;
80625;SDS011;69982;51.758;5.784;2023-07-20T18:08:00;4.90;;;3.00;;
80625;SDS011;69982;51.758;5.784;2023-07-20T18:10:26;5.90;;;3.20;;
80625;SDS011;69982;51.758;5.784;2023-07-20T18:12:52;5.60;;;2.60;;
80625;SDS011;69982;51.758;5.784;2023-07-20T18:15:19;5.50;;;2.60;;
80625;SDS011;69982;51.758;5.784;2023-07-20T18:17:45;4.80;;;2.50;;
80625;SDS011;69982;51.758;5.784;2023-07-20T18:20:11;10.10;;;2.50;;
80625;SDS011;69982;51.758;5.784;2023-07-20T18:22:38;4.90;;;2.20;;
80625;SDS011;69982;51.758;5.784;2023-07-20T18:25:04;5.30;;;2.00;;
80625;SDS011;69982;51.758;5.784;2023-07-20T18:27:31;4.20;;;2.40;;
80625;SDS011;69982;51.758;5.784;2023-07-20T18:29:58;4.30;;;1.70;;
80625;SDS011;69982;51.758;5.784;2023-07-20T18:32:25;4.50;;;2.40;;
80625;SDS011;69982;51.758;5.784;2023-07-20T18:34:51;4.00;;;2.00;;